createdAt,value
2019-05-07T00:00:50.318Z,8.10
2019-05-07T00:03:17.796Z,7.22
2019-05-07T00:05:45.532Z,7.67
2019-05-07T00:08:13.275Z,7.00
2019-05-07T00:10:42.565Z,6.50
2019-05-07T00:13:10.314Z,5.95
2019-05-07T00:15:37.896Z,6.25
2019-05-07T00:18:05.560Z,5.75
2019-05-07T00:20:33.049Z,5.92
2019-05-07T00:23:02.845Z,4.90
2019-05-07T00:25:32.540Z,6.00
2019-05-07T00:27:59.855Z,5.58
2019-05-07T00:30:27.328Z,5.70
2019-05-07T00:32:54.885Z,5.90
2019-05-07T00:35:24.381Z,5.47
2019-05-07T00:37:53.754Z,5.45
2019-05-07T00:40:32.122Z,5.10
2019-05-07T00:43:04.455Z,5.80
2019-05-07T00:45:35.084Z,5.70
2019-05-07T00:48:03.007Z,5.45
2019-05-07T00:50:33.110Z,5.62
2019-05-07T00:53:02.187Z,5.85
2019-05-07T00:55:29.695Z,5.50
2019-05-07T00:57:57.252Z,5.50
2019-05-07T01:00:24.741Z,5.47
2019-05-07T01:02:52.900Z,5.78
2019-05-07T01:05:23.075Z,5.78
2019-05-07T01:07:52.767Z,5.90
2019-05-07T01:10:22.141Z,5.55
2019-05-07T01:12:49.788Z,5.87
2019-05-07T01:15:28.874Z,5.72
2019-05-07T01:17:46.822Z,4.95
2019-05-07T01:20:14.558Z,5.63
2019-05-07T01:22:42.491Z,5.35
2019-05-07T01:25:10.308Z,5.80
2019-05-07T01:27:37.970Z,5.62
2019-05-07T01:30:05.531Z,5.85
2019-05-07T01:32:35.325Z,5.42
2019-05-07T01:35:06.700Z,5.50
2019-05-07T01:37:34.396Z,5.67
2019-05-07T01:40:03.099Z,5.72
2019-05-07T01:42:32.710Z,5.33
2019-05-07T01:45:02.332Z,5.55
2019-05-07T01:47:30.032Z,6.55
2019-05-07T01:49:57.478Z,5.83
2019-05-07T01:52:25.211Z,5.60
2019-05-07T01:54:52.754Z,6.53
2019-05-07T01:57:20.308Z,5.55
2019-05-07T01:59:47.794Z,5.72
2019-05-07T02:02:17.312Z,5.40
2019-05-07T02:04:46.700Z,5.95
2019-05-07T02:07:16.288Z,5.62
2019-05-07T02:09:51.959Z,6.30
2019-05-07T02:12:22.191Z,6.28
2019-05-07T02:14:50.171Z,5.65
2019-05-07T02:17:17.794Z,5.92
2019-05-07T02:19:45.456Z,5.30
2019-05-07T02:22:13.401Z,6.10
2019-05-07T02:24:43.256Z,5.67
2019-05-07T02:27:12.544Z,5.70
2019-05-07T02:29:40.099Z,6.08
2019-05-07T02:32:07.666Z,5.47
2019-05-07T02:34:35.277Z,6.17
2019-05-07T02:37:04.615Z,5.60
2019-05-07T02:39:44.370Z,5.95
2019-05-07T02:42:14.123Z,6.47
2019-05-07T02:45:03.707Z,5.58
2019-05-07T02:47:33.240Z,5.78
2019-05-07T02:50:03.231Z,5.80
2019-05-07T02:52:49.336Z,5.87
2019-05-07T02:55:24.767Z,5.95
2019-05-07T02:57:54.021Z,5.80
2019-05-07T03:00:24.111Z,5.85
2019-05-07T03:02:53.047Z,5.95
2019-05-07T03:05:23.063Z,6.83
2019-05-07T03:07:53.227Z,5.92
2019-05-07T03:10:19.546Z,5.80
2019-05-07T03:12:47.148Z,5.53
2019-05-07T03:15:15.170Z,6.03
2019-05-07T03:17:43.159Z,5.90
2019-05-07T03:20:14.048Z,5.83
2019-05-07T03:22:42.800Z,6.08
2019-05-07T03:25:18.597Z,6.25
2019-05-07T03:27:46.189Z,6.33
2019-05-07T03:30:25.988Z,6.20
2019-05-07T03:33:08.033Z,5.42
2019-05-07T03:35:46.409Z,6.03
2019-05-07T03:38:13.361Z,6.47
2019-05-07T03:40:41.081Z,4.95
2019-05-07T03:43:08.536Z,5.78
2019-05-07T03:45:53.695Z,6.37
2019-05-07T03:48:23.882Z,6.35
2019-05-07T03:50:52.784Z,5.42
2019-05-07T03:53:23.085Z,5.37
2019-05-07T03:55:53.921Z,6.17
2019-05-07T03:58:23.537Z,5.62
2019-05-07T04:00:53.189Z,5.40
2019-05-07T04:03:24.140Z,5.65
2019-05-07T04:05:49.300Z,6.92
2019-05-07T04:08:16.958Z,6.30
2019-05-07T04:10:44.671Z,5.78
2019-05-07T04:13:13.460Z,5.78
2019-05-07T04:15:43.824Z,5.37
2019-05-07T04:18:13.146Z,5.55
2019-05-07T04:20:43.387Z,5.72
2019-05-07T04:23:09.785Z,5.62
2019-05-07T04:25:48.195Z,5.40
2019-05-07T04:28:23.354Z,5.65
2019-05-07T04:30:53.292Z,5.80
2019-05-07T04:33:23.870Z,5.45
2019-05-07T04:35:56.368Z,5.87
2019-05-07T04:40:53.839Z,5.40
2019-05-07T04:43:23.351Z,5.58
2019-05-07T04:45:53.409Z,5.30
2019-05-07T04:48:23.032Z,5.87
2019-05-07T04:50:54.216Z,5.65
2019-05-07T04:53:23.678Z,5.53
2019-05-07T04:55:53.269Z,5.70
2019-05-07T04:58:23.325Z,5.15
2019-05-07T05:00:49.347Z,5.00
2019-05-07T05:03:18.882Z,5.90
2019-05-07T05:05:46.620Z,5.83
2019-05-07T05:08:14.368Z,5.60
2019-05-07T05:10:43.268Z,5.10
2019-05-07T05:13:12.993Z,5.35
2019-05-07T05:15:42.909Z,4.72
2019-05-07T05:18:10.084Z,4.55
2019-05-07T05:20:39.482Z,5.15
2019-05-07T05:23:12.152Z,4.47
2019-05-07T05:25:43.099Z,3.92
2019-05-07T05:28:12.375Z,4.17
2019-05-07T05:30:44.334Z,4.17
2019-05-07T05:33:12.569Z,4.65
2019-05-07T05:35:40.346Z,3.52
2019-05-07T05:38:07.982Z,3.72
2019-05-07T05:40:35.569Z,4.17
2019-05-07T05:43:05.032Z,3.40
2019-05-07T05:45:33.495Z,3.98
2019-05-07T05:48:05.529Z,3.52
2019-05-07T05:50:49.700Z,3.80
2019-05-07T05:53:24.972Z,7.58
2019-05-07T05:55:53.668Z,5.22
2019-05-07T05:58:29.156Z,6.72
2019-05-07T06:01:04.630Z,4.10
2019-05-07T06:03:49.064Z,4.00
2019-05-07T06:06:18.444Z,3.92
2019-05-07T06:08:52.431Z,4.62
2019-05-07T06:11:21.937Z,4.50
2019-05-07T06:13:52.719Z,3.92
2019-05-07T06:16:25.314Z,4.37
2019-05-07T06:18:57.971Z,3.70
2019-05-07T06:21:32.214Z,3.25
2019-05-07T06:24:16.544Z,3.80
2019-05-07T06:26:44.127Z,4.10
2019-05-07T06:29:12.707Z,4.62
2019-05-07T06:31:42.162Z,3.90
2019-05-07T06:34:09.798Z,4.10
2019-05-07T06:36:39.365Z,4.78
2019-05-07T06:39:13.513Z,5.53
2019-05-07T06:41:46.067Z,5.20
2019-05-07T06:44:15.464Z,6.37
2019-05-07T06:46:43.129Z,6.67
2019-05-07T06:49:12.670Z,7.00
2019-05-07T06:51:41.978Z,6.40
2019-05-07T06:54:09.508Z,6.75
2019-05-07T06:56:37.090Z,7.05
2019-05-07T06:59:06.570Z,7.65
2019-05-07T07:01:42.369Z,6.55
2019-05-07T07:04:15.177Z,5.72
2019-05-07T07:06:47.346Z,6.95
2019-05-07T07:09:22.789Z,7.72
2019-05-07T07:11:52.939Z,6.97
2019-05-07T07:14:22.595Z,6.12
2019-05-07T07:16:49.926Z,6.33
2019-05-07T07:19:17.535Z,6.95
2019-05-07T07:21:45.085Z,6.55
2019-05-07T07:24:12.796Z,7.00
2019-05-07T07:26:42.247Z,6.62
2019-05-07T07:29:12.700Z,6.53
2019-05-07T07:31:52.749Z,6.72
2019-05-07T07:34:22.810Z,5.97
2019-05-07T07:37:10.897Z,5.80
2019-05-07T07:39:36.579Z,5.78
2019-05-07T07:42:05.972Z,5.35
2019-05-07T07:44:33.684Z,6.00
2019-05-07T07:47:02.516Z,6.60
2019-05-07T07:49:32.325Z,6.83
2019-05-07T07:51:59.814Z,6.20
2019-05-07T07:54:27.322Z,6.17
2019-05-07T07:57:02.144Z,6.30
2019-05-07T07:59:49.169Z,6.53
2019-05-07T08:02:22.970Z,6.85
2019-05-07T08:04:52.768Z,7.35
2019-05-07T08:07:20.060Z,7.78
2019-05-07T08:09:47.567Z,6.90
2019-05-07T08:12:15.175Z,6.25
2019-05-07T08:14:42.858Z,6.60
2019-05-07T08:17:12.799Z,6.78
2019-05-07T08:19:40.243Z,6.78
2019-05-07T08:22:07.942Z,7.37
2019-05-07T08:24:35.578Z,6.87
2019-05-07T08:27:03.250Z,7.12
2019-05-07T08:29:32.588Z,6.92
2019-05-07T08:32:22.305Z,6.45
2019-05-07T08:34:52.190Z,6.53
2019-05-07T08:37:19.818Z,5.95
2019-05-07T08:39:47.658Z,5.37
2019-05-07T08:42:17.508Z,5.92
2019-05-07T08:44:48.698Z,6.25
2019-05-07T08:47:33.253Z,5.75
2019-05-07T08:50:02.892Z,6.10
2019-05-07T08:52:32.574Z,5.70
2019-05-07T08:55:02.181Z,6.12
2019-05-07T08:57:31.693Z,6.45
2019-05-07T09:00:01.553Z,7.28
2019-05-07T09:02:28.803Z,7.08
2019-05-07T09:04:56.382Z,6.47
2019-05-07T09:07:23.952Z,8.13
2019-05-07T09:09:52.393Z,6.60
2019-05-07T09:12:20.124Z,6.40
2019-05-07T09:14:47.674Z,5.70
2019-05-07T09:17:15.248Z,5.70
2019-05-07T09:19:50.931Z,5.90
2019-05-07T09:22:13.643Z,5.58
2019-05-07T09:24:42.425Z,6.20
2019-05-07T09:27:18.078Z,6.20
2019-05-07T09:29:51.991Z,6.00
2019-05-07T09:32:22.758Z,6.10
2019-05-07T09:34:52.574Z,5.95
2019-05-07T09:37:28.009Z,6.03
2019-05-07T09:39:55.761Z,6.37
2019-05-07T09:42:23.410Z,5.75
2019-05-07T09:44:52.751Z,6.00
2019-05-07T09:47:21.916Z,6.50
2019-05-07T09:50:04.021Z,6.33
2019-05-07T09:52:22.865Z,5.67
2019-05-07T09:54:52.205Z,6.12
2019-05-07T09:57:28.312Z,5.58
2019-05-07T09:59:49.945Z,6.22
2019-05-07T10:02:17.625Z,5.45
2019-05-07T10:04:45.187Z,4.95
2019-05-07T10:07:12.811Z,5.90
2019-05-07T10:09:42.580Z,5.72
2019-05-07T10:12:13.677Z,6.40
2019-05-07T10:14:42.090Z,5.87
2019-05-07T10:17:12.018Z,4.87
2019-05-07T10:19:41.680Z,5.90
2019-05-07T10:22:09.525Z,5.70
2019-05-07T10:24:36.986Z,5.55
2019-05-07T10:27:04.470Z,5.65
2019-05-07T10:29:32.409Z,5.80
2019-05-07T10:32:02.258Z,5.72
2019-05-07T10:34:30.021Z,5.53
2019-05-07T10:36:57.620Z,5.62
2019-05-07T10:39:26.298Z,5.72
2019-05-07T10:41:53.680Z,6.15
2019-05-07T10:44:23.180Z,6.20
2019-05-07T10:47:09.711Z,5.83
2019-05-07T10:49:39.256Z,6.08
2019-05-07T10:52:06.743Z,5.95
2019-05-07T10:54:34.232Z,5.80
2019-05-07T10:57:01.820Z,5.95
2019-05-07T10:59:29.322Z,5.72
2019-05-07T11:02:02.450Z,6.28
2019-05-07T11:04:40.148Z,6.60
2019-05-07T11:06:59.752Z,5.97
2019-05-07T11:09:27.689Z,5.15
2019-05-07T11:11:55.461Z,5.17
2019-05-07T11:14:23.181Z,5.33
2019-05-07T11:16:52.652Z,6.45
2019-05-07T11:19:22.007Z,4.97
2019-05-07T11:21:51.998Z,5.97
2019-05-07T11:24:19.330Z,6.00
2019-05-07T11:26:46.887Z,6.70
2019-05-07T11:29:14.370Z,6.80
2019-05-07T11:31:42.290Z,6.45
2019-05-07T11:34:13.550Z,6.67
2019-05-07T11:36:39.864Z,6.55
2019-05-07T11:39:07.430Z,6.28
2019-05-07T11:41:37.614Z,6.62
2019-05-07T11:44:07.076Z,6.22
2019-05-07T11:46:52.576Z,6.28
2019-05-07T11:49:25.443Z,6.50
2019-05-07T11:54:22.538Z,6.42
2019-05-07T11:56:51.870Z,6.90
2019-05-07T11:59:19.398Z,6.92
2019-05-07T12:01:48.905Z,6.40
2019-05-07T12:04:16.469Z,6.47
2019-05-07T12:06:44.067Z,5.87
2019-05-07T12:09:12.132Z,6.87
2019-05-07T12:11:39.922Z,6.80
2019-05-07T12:14:07.592Z,6.80
2019-05-07T12:16:35.188Z,6.58
2019-05-07T12:19:02.798Z,7.45
2019-05-07T12:21:30.364Z,6.90
2019-05-07T12:23:57.857Z,6.67
2019-05-07T12:26:25.581Z,6.08
2019-05-07T12:28:54.285Z,6.05
2019-05-07T12:31:33.622Z,7.08
2019-05-07T12:34:09.047Z,10.23
2019-05-07T12:36:36.712Z,8.15
2019-05-07T12:39:06.159Z,7.35
2019-05-07T12:41:35.532Z,6.65
2019-05-07T12:44:04.900Z,7.25
2019-05-07T12:46:33.646Z,7.00
2019-05-07T12:49:03.069Z,6.80
2019-05-07T12:51:37.194Z,7.00
2019-05-07T12:54:11.933Z,6.55
2019-05-07T12:56:42.518Z,7.05
2019-05-07T12:59:10.073Z,6.60
2019-05-07T13:01:57.271Z,7.00
2019-05-07T13:04:26.729Z,7.50
2019-05-07T13:07:12.919Z,7.37
2019-05-07T13:09:42.437Z,6.47
2019-05-07T13:12:09.833Z,7.08
2019-05-07T13:14:37.441Z,6.85
2019-05-07T13:17:04.887Z,6.22
2019-05-07T13:19:33.568Z,7.22
2019-05-07T13:22:02.312Z,7.92
2019-05-07T13:24:32.075Z,7.25
2019-05-07T13:26:59.844Z,7.03
2019-05-07T13:29:27.646Z,6.80
2019-05-07T13:31:55.413Z,6.20
2019-05-07T13:34:23.016Z,6.45
2019-05-07T13:37:09.739Z,6.95
2019-05-07T13:39:39.133Z,7.22
2019-05-07T13:42:08.596Z,7.50
2019-05-07T13:44:41.117Z,7.70
2019-05-07T13:49:56.323Z,7.03
2019-05-07T13:52:24.223Z,7.53
2019-05-07T13:54:52.661Z,7.33
2019-05-07T13:57:22.522Z,8.25
2019-05-07T13:59:50.268Z,7.42
2019-05-07T14:02:19.755Z,7.72
2019-05-07T14:04:47.481Z,7.45
2019-05-07T14:07:15.075Z,7.45
2019-05-07T14:09:42.597Z,7.50
2019-05-07T14:12:12.154Z,7.55
2019-05-07T14:14:42.429Z,7.03
2019-05-07T14:17:09.463Z,7.37
2019-05-07T14:19:37.210Z,8.03
2019-05-07T14:22:15.426Z,6.80
2019-05-07T14:24:34.436Z,7.17
2019-05-07T14:27:02.141Z,6.97
2019-05-07T14:29:31.875Z,7.67
2019-05-07T14:32:04.147Z,7.60
2019-05-07T14:34:36.508Z,7.05
2019-05-07T14:37:06.095Z,7.65
2019-05-07T14:39:33.574Z,7.55
2019-05-07T14:42:05.653Z,7.87
2019-05-07T14:44:49.294Z,6.97
2019-05-07T14:47:17.841Z,7.45
2019-05-07T14:49:46.302Z,7.90
2019-05-07T14:52:14.034Z,7.30
2019-05-07T14:54:42.832Z,7.53
2019-05-07T14:57:10.649Z,6.97
2019-05-07T14:59:38.551Z,7.80
2019-05-07T15:02:06.644Z,7.85
2019-05-07T15:04:34.418Z,7.40
2019-05-07T15:07:02.523Z,7.53
2019-05-07T15:09:31.806Z,11.00
2019-05-07T15:12:02.099Z,7.58
2019-05-07T15:14:31.746Z,8.15
2019-05-07T15:17:02.282Z,7.90
2019-05-07T15:19:31.992Z,7.92
2019-05-07T15:22:18.287Z,8.25
2019-05-07T15:24:45.922Z,7.60
2019-05-07T15:27:13.591Z,7.70
2019-05-07T15:29:42.107Z,8.00
2019-05-07T15:32:12.540Z,7.90
2019-05-07T15:34:41.979Z,7.92
2019-05-07T15:37:12.167Z,8.10
2019-05-07T15:39:42.038Z,7.35
2019-05-07T15:42:09.339Z,8.38
2019-05-07T15:44:36.775Z,8.23
2019-05-07T15:47:06.258Z,7.33
2019-05-07T15:49:34.141Z,7.58
2019-05-07T15:52:03.725Z,8.13
2019-05-07T15:54:32.607Z,7.75
2019-05-07T15:57:02.146Z,7.30
2019-05-07T15:59:29.932Z,7.75
2019-05-07T16:02:02.948Z,10.50
2019-05-07T16:04:32.740Z,7.97
2019-05-07T16:07:05.025Z,7.95
2019-05-07T16:09:44.273Z,8.33
2019-05-07T16:12:15.921Z,6.50
2019-05-07T16:14:43.773Z,7.65
2019-05-07T16:17:13.940Z,7.60
2019-05-07T16:19:42.559Z,8.03
2019-05-07T16:22:12.740Z,7.50
2019-05-07T16:24:40.546Z,7.65
2019-05-07T16:27:08.067Z,8.38
2019-05-07T16:29:36.041Z,6.90
2019-05-07T16:32:03.681Z,6.97
2019-05-07T16:34:32.530Z,7.42
2019-05-07T16:37:03.501Z,7.28
2019-05-07T16:39:30.260Z,7.17
2019-05-07T16:41:57.822Z,7.62
2019-05-07T16:44:25.277Z,7.35
2019-05-07T16:46:53.428Z,8.05
2019-05-07T16:49:22.387Z,7.62
2019-05-07T16:51:52.433Z,7.03
2019-05-07T16:54:20.044Z,7.95
2019-05-07T16:56:55.769Z,8.03
2019-05-07T16:59:24.761Z,8.08
2019-05-07T17:01:52.759Z,8.00
2019-05-07T17:04:22.784Z,8.08
2019-05-07T17:06:52.190Z,7.78
2019-05-07T17:09:22.223Z,7.92
2019-05-07T17:11:49.845Z,7.58
2019-05-07T17:14:17.376Z,7.72
2019-05-07T17:16:45.343Z,8.33
2019-05-07T17:19:14.636Z,7.92
2019-05-07T17:21:43.909Z,6.92
2019-05-07T17:24:11.971Z,7.90
2019-05-07T17:26:39.622Z,7.65
2019-05-07T17:29:07.063Z,7.80
2019-05-07T17:31:34.609Z,7.50
2019-05-07T17:34:02.346Z,7.62
2019-05-07T17:36:30.078Z,7.55
2019-05-07T17:38:58.728Z,7.70
2019-05-07T17:41:27.392Z,7.80
2019-05-07T17:43:55.238Z,7.97
2019-05-07T17:46:22.821Z,7.60
2019-05-07T17:48:52.400Z,7.70
2019-05-07T17:51:42.203Z,8.10
2019-05-07T17:54:12.864Z,7.90
2019-05-07T17:56:42.229Z,10.68
2019-05-07T17:59:12.170Z,11.00
2019-05-07T18:01:45.427Z,41.37
2019-05-07T18:04:13.321Z,11.22
2019-05-07T18:06:42.763Z,12.80
2019-05-07T18:09:12.190Z,12.78
2019-05-07T18:11:40.349Z,10.68
2019-05-07T18:14:08.918Z,8.35
2019-05-07T18:16:38.387Z,8.43
2019-05-07T18:19:06.019Z,7.85
2019-05-07T18:21:33.517Z,7.95
2019-05-07T18:24:13.415Z,7.80
2019-05-07T18:26:33.757Z,8.70
2019-05-07T18:29:02.441Z,8.45
2019-05-07T18:31:49.216Z,8.68
2019-05-07T18:34:16.803Z,8.53
2019-05-07T18:36:44.583Z,8.18
2019-05-07T18:39:12.365Z,8.75
2019-05-07T18:41:41.737Z,8.73
2019-05-07T18:44:12.916Z,8.30
2019-05-07T18:46:39.069Z,8.48
2019-05-07T18:49:06.715Z,8.48
2019-05-07T18:51:34.234Z,7.70
2019-05-07T18:54:02.410Z,9.15
2019-05-07T18:56:30.342Z,8.68
2019-05-07T18:58:57.897Z,8.70
2019-05-07T19:01:27.396Z,8.88
2019-05-07T19:03:56.052Z,8.38
2019-05-07T19:06:23.708Z,7.62
2019-05-07T19:08:52.681Z,7.55
2019-05-07T19:11:22.610Z,8.45
2019-05-07T19:13:51.908Z,7.40
2019-05-07T19:16:20.177Z,7.65
2019-05-07T19:18:47.743Z,7.95
2019-05-07T19:21:15.425Z,7.62
2019-05-07T19:23:43.415Z,7.85
2019-05-07T19:26:13.050Z,8.20
2019-05-07T19:28:41.371Z,9.60
2019-05-07T19:31:09.413Z,10.93
2019-05-07T19:33:37.389Z,8.75
2019-05-07T19:36:05.322Z,8.23
2019-05-07T19:38:33.086Z,7.85
2019-05-07T19:41:02.172Z,9.48
2019-05-07T19:43:32.362Z,9.70
2019-05-07T19:45:59.919Z,11.25
2019-05-07T19:48:27.816Z,14.18
2019-05-07T19:50:55.389Z,8.70
2019-05-07T19:53:23.663Z,7.78
2019-05-07T19:56:05.181Z,8.15
2019-05-07T19:58:33.178Z,8.05
2019-05-07T20:01:01.972Z,8.18
2019-05-07T20:03:29.624Z,8.23
2019-05-07T20:05:57.182Z,7.70
2019-05-07T20:08:24.957Z,7.87
2019-05-07T20:11:06.464Z,8.43
2019-05-07T20:13:34.121Z,7.22
2019-05-07T20:16:03.872Z,7.25
2019-05-07T20:18:32.655Z,7.40
2019-05-07T20:21:02.677Z,6.90
2019-05-07T20:23:32.337Z,7.15
2019-05-07T20:26:02.792Z,7.35
2019-05-07T20:28:32.676Z,7.87
2019-05-07T20:31:00.148Z,8.38
2019-05-07T20:33:27.995Z,7.60
2019-05-07T20:35:55.463Z,7.50
2019-05-07T20:38:23.346Z,7.92
2019-05-07T20:40:52.132Z,8.00
2019-05-07T20:43:20.009Z,7.50
2019-05-07T20:45:47.570Z,8.70
2019-05-07T20:48:15.188Z,9.45
2019-05-07T20:50:42.718Z,8.25
2019-05-07T20:53:10.375Z,9.43
2019-05-07T20:55:43.186Z,8.75
2019-05-07T20:58:12.798Z,8.83
2019-05-07T21:00:40.436Z,9.75
2019-05-07T21:03:20.185Z,8.80
2019-05-07T21:05:50.170Z,9.53
2019-05-07T21:08:18.009Z,9.45
2019-05-07T21:10:45.706Z,10.28
2019-05-07T21:13:27.429Z,9.93
2019-05-07T21:15:44.155Z,11.55
2019-05-07T21:18:12.942Z,11.90
2019-05-07T21:20:42.052Z,11.65
2019-05-07T21:23:12.058Z,11.35
2019-05-07T21:25:43.505Z,11.50
2019-05-07T21:28:08.896Z,12.03
2019-05-07T21:30:36.840Z,11.15
2019-05-07T21:33:04.699Z,11.83
2019-05-07T21:35:32.929Z,10.48
2019-05-07T21:38:01.030Z,9.58
2019-05-07T21:40:29.075Z,10.53
2019-05-07T21:42:57.164Z,10.43
2019-05-07T21:45:26.449Z,10.35
2019-05-07T21:47:54.482Z,10.35
2019-05-07T21:50:22.252Z,10.75
2019-05-07T21:53:03.802Z,10.72
2019-05-07T21:55:33.810Z,10.30
2019-05-07T21:58:03.202Z,9.88
2019-05-07T22:00:33.367Z,10.03
2019-05-07T22:03:17.540Z,9.90
2019-05-07T22:05:45.423Z,9.38
2019-05-07T22:08:14.394Z,9.28
2019-05-07T22:10:42.053Z,10.08
2019-05-07T22:13:12.331Z,10.48
2019-05-07T22:15:42.071Z,9.98
2019-05-07T22:18:09.315Z,10.10
2019-05-07T22:20:37.165Z,10.72
2019-05-07T22:23:04.818Z,10.45
2019-05-07T22:25:32.863Z,9.75
2019-05-07T22:28:04.563Z,9.65
2019-05-07T22:30:39.017Z,10.48
2019-05-07T22:33:12.897Z,11.08
2019-05-07T22:35:42.616Z,10.50
2019-05-07T22:38:27.463Z,9.83
2019-05-07T22:40:57.062Z,11.22
2019-05-07T22:43:26.330Z,10.65
2019-05-07T22:45:53.906Z,10.08
2019-05-07T22:48:22.966Z,9.70
2019-05-07T22:50:51.910Z,10.48
2019-05-07T22:53:22.079Z,11.30
2019-05-07T22:55:49.698Z,10.65
2019-05-07T22:58:19.221Z,10.95
2019-05-07T23:00:54.502Z,11.33
2019-05-07T23:03:22.818Z,10.08
2019-05-07T23:05:52.312Z,10.55
2019-05-07T23:08:22.126Z,9.88
2019-05-07T23:10:49.426Z,10.00
2019-05-07T23:13:17.012Z,9.35
2019-05-07T23:15:44.634Z,10.03
2019-05-07T23:18:13.033Z,9.58
2019-05-07T23:20:42.702Z,9.70
2019-05-07T23:23:13.898Z,10.05
2019-05-07T23:25:42.903Z,9.55
2019-05-07T23:28:12.408Z,10.10
2019-05-07T23:30:42.146Z,10.30
2019-05-07T23:33:11.963Z,10.25
2019-05-07T23:35:41.996Z,10.32
2019-05-07T23:38:11.757Z,10.95
2019-05-07T23:40:46.959Z,10.28
2019-05-07T23:43:17.736Z,11.10
2019-05-07T23:45:45.271Z,10.13
2019-05-07T23:48:14.317Z,10.25
2019-05-07T23:50:42.050Z,10.50
2019-05-07T23:53:09.813Z,10.95
2019-05-07T23:55:37.772Z,11.48
2019-05-07T23:58:05.749Z,10.30
